Accueil
METAR-TAF:

METAR-TAF

Aéroports :

Dübendorf, Suisse

latitude: 47-23-55N, longitude: 8-38-53E, altitude: 448 m

Observation

Le bulletin a été fait il y a 1 heure et 12 minutes, à 07:50 UTC
Vent 5 kt de nord/nord-ouest, variant entre ouest/nord-ouest et nord
Température 4°C
Humidité 87%
Pression 1014 hPa
Visibilité 10 km ou plus
Quelques nuages à une hauteur de 600 ft
Nuages épars à une hauteur de 800 ft
Ciel couvert à une hauteur de 1300 ft
faibles averses de pluie

METAR: LSMD 270750Z 33005KT 290V010 9999 -SHRA FEW006 SCT008 OVC013 04/02 Q1014 RMK GRN

Heure: 11:02 (09:02 UTC)


TAF: absent

Observations et prévisions météorologiques de plus de 4000 aéroports (messages METAR et TAF).

Les stations disponibles sont représentées par des disques jaunes et rouges sur la carte.

Passer la souris dessus pour voir le nom de la station.

Cliquer dessus pour voir les observations et prévisions météorologiques.

Pour changer de carte: cliquez sur les boutons verts avec une croix noire pour zoomer, sur le bouton vert avec un tiret pour effectuer un zoom arrière, ou sur les flèches vertes pour les cartes adjacentes.


METAR-TAF: